createdAt,value
2023-05-06T00:01:33.928Z,2.15
2023-05-06T00:04:00.780Z,1.85
2023-05-06T00:06:27.661Z,2.07
2023-05-06T00:08:54.397Z,1.80
2023-05-06T00:11:21.160Z,2.00
2023-05-06T00:13:47.749Z,1.75
2023-05-06T00:16:14.330Z,1.90
2023-05-06T00:18:43.323Z,1.97
2023-05-06T00:21:10.169Z,2.30
2023-05-06T00:23:36.878Z,1.70
2023-05-06T00:26:03.463Z,2.25
2023-05-06T00:28:30.065Z,2.50
2023-05-06T00:30:57.629Z,2.30
2023-05-06T00:33:24.354Z,1.73
2023-05-06T00:35:52.458Z,1.80
2023-05-06T00:38:19.713Z,2.03
2023-05-06T00:40:46.316Z,1.90
2023-05-06T00:43:15.394Z,1.93
2023-05-06T00:45:42.144Z,1.55
2023-05-06T00:48:09.574Z,2.10
2023-05-06T00:50:38.975Z,1.90
2023-05-06T00:53:06.764Z,1.90
2023-05-06T00:55:33.509Z,2.13
2023-05-06T00:58:01.088Z,2.00
2023-05-06T01:00:30.193Z,1.85
2023-05-06T01:02:56.911Z,1.95
2023-05-06T01:05:28.293Z,1.70
2023-05-06T01:08:11.077Z,1.70
2023-05-06T01:11:18.153Z,1.85
2023-05-06T01:13:52.390Z,1.90
2023-05-06T01:16:25.413Z,2.03
2023-05-06T01:18:54.790Z,2.10
2023-05-06T01:21:22.828Z,1.67
2023-05-06T01:23:58.373Z,1.90
2023-05-06T01:26:25.534Z,1.75
2023-05-06T01:28:52.252Z,2.03
2023-05-06T01:31:35.186Z,1.80
2023-05-06T01:34:23.940Z,1.87
2023-05-06T01:37:38.240Z,1.85
2023-05-06T01:40:06.025Z,1.90
2023-05-06T01:42:36.946Z,1.83
2023-05-06T01:45:06.097Z,2.35
2023-05-06T01:47:33.805Z,2.10
2023-05-06T01:50:01.984Z,2.13
2023-05-06T01:52:31.121Z,2.40
2023-05-06T01:54:58.395Z,2.10
2023-05-06T01:57:25.168Z,2.10
2023-05-06T01:59:51.872Z,2.23
2023-05-06T02:02:18.469Z,1.98
2023-05-06T02:04:47.721Z,2.50
2023-05-06T02:07:16.473Z,2.10
2023-05-06T02:09:43.028Z,2.25
2023-05-06T02:12:09.615Z,1.90
2023-05-06T02:14:36.317Z,2.20
2023-05-06T02:17:06.310Z,2.00
2023-05-06T02:19:32.926Z,2.20
2023-05-06T02:21:59.487Z,2.53
2023-05-06T02:24:27.018Z,2.17
2023-05-06T02:26:53.657Z,2.10
2023-05-06T02:29:20.797Z,2.13
2023-05-06T02:31:47.428Z,1.85
2023-05-06T02:34:14.017Z,2.05
2023-05-06T02:36:42.825Z,2.90
2023-05-06T02:39:11.990Z,2.08
2023-05-06T02:41:41.595Z,2.20
2023-05-06T02:44:08.166Z,2.47
2023-05-06T02:46:34.852Z,2.53
2023-05-06T02:49:03.682Z,1.87
2023-05-06T02:51:31.137Z,2.70
2023-05-06T02:53:57.668Z,2.20
2023-05-06T02:56:24.331Z,2.80
2023-05-06T02:58:53.500Z,2.88
2023-05-06T03:01:20.103Z,2.60
2023-05-06T03:03:48.945Z,2.40
2023-05-06T03:06:15.631Z,2.50
2023-05-06T03:08:44.635Z,2.80
2023-05-06T03:11:13.435Z,2.70
2023-05-06T03:13:40.036Z,2.53
2023-05-06T03:16:16.722Z,2.28
2023-05-06T03:18:43.270Z,2.42
2023-05-06T03:21:09.990Z,2.30
2023-05-06T03:23:38.924Z,2.95
2023-05-06T03:26:05.586Z,2.53
2023-05-06T03:28:32.315Z,2.58
2023-05-06T03:30:59.009Z,2.30
2023-05-06T03:33:25.675Z,2.30
2023-05-06T03:35:52.238Z,2.38
2023-05-06T03:38:18.756Z,2.37
2023-05-06T03:40:45.296Z,2.30
2023-05-06T03:43:11.852Z,2.30
2023-05-06T03:45:38.385Z,2.53
2023-05-06T03:48:05.158Z,2.42
2023-05-06T03:50:31.908Z,2.13
2023-05-06T03:52:58.472Z,1.90
2023-05-06T03:55:27.302Z,2.55
2023-05-06T03:57:53.870Z,2.45
2023-05-06T04:00:20.902Z,3.05
2023-05-06T04:02:47.481Z,2.80
2023-05-06T04:05:16.527Z,2.72
2023-05-06T04:07:43.106Z,2.80
2023-05-06T04:10:10.027Z,2.53
2023-05-06T04:12:36.640Z,2.60
2023-05-06T04:15:03.408Z,3.17
2023-05-06T04:17:30.049Z,3.00
2023-05-06T04:19:57.515Z,3.13
2023-05-06T04:22:24.158Z,3.00
2023-05-06T04:24:50.720Z,2.90
2023-05-06T04:27:17.349Z,3.00
2023-05-06T04:29:43.904Z,3.38
2023-05-06T04:32:11.845Z,3.05
2023-05-06T04:34:38.542Z,3.40
2023-05-06T04:37:05.709Z,2.75
2023-05-06T04:39:32.718Z,2.97
2023-05-06T04:42:02.351Z,2.67
2023-05-06T04:44:29.520Z,3.40
2023-05-06T04:46:56.221Z,2.92
2023-05-06T04:49:22.773Z,3.22
2023-05-06T04:51:49.361Z,3.10
2023-05-06T04:54:15.950Z,2.75
2023-05-06T04:56:45.537Z,3.03
2023-05-06T04:59:12.230Z,3.10
2023-05-06T05:01:38.957Z,2.70
2023-05-06T05:04:05.608Z,2.77
2023-05-06T05:06:32.218Z,2.40
2023-05-06T05:08:59.639Z,2.47
2023-05-06T05:11:26.764Z,2.75
2023-05-06T05:13:56.939Z,2.67
2023-05-06T05:16:24.519Z,2.23
2023-05-06T05:18:53.568Z,2.60
2023-05-06T05:21:21.127Z,2.60
2023-05-06T05:23:47.724Z,2.65
2023-05-06T05:26:14.280Z,2.75
2023-05-06T05:28:40.834Z,2.37
2023-05-06T05:31:09.677Z,2.67
2023-05-06T05:33:39.630Z,2.38
2023-05-06T05:36:06.858Z,2.20
2023-05-06T05:38:33.847Z,2.55
2023-05-06T05:41:00.401Z,2.73
2023-05-06T05:43:27.108Z,2.33
2023-05-06T05:45:53.706Z,2.50
2023-05-06T05:48:20.358Z,2.42
2023-05-06T05:50:46.959Z,2.25
2023-05-06T05:53:13.536Z,2.30
2023-05-06T05:55:42.217Z,2.55
2023-05-06T05:58:14.641Z,1.98
2023-05-06T06:00:41.302Z,2.03
2023-05-06T06:03:08.076Z,2.05
2023-05-06T06:05:34.773Z,2.57
2023-05-06T06:08:03.474Z,2.40
2023-05-06T06:10:30.761Z,2.63
2023-05-06T06:12:59.904Z,2.20
2023-05-06T06:15:26.596Z,1.92
2023-05-06T06:17:58.088Z,1.80
2023-05-06T06:20:27.254Z,2.25
2023-05-06T06:22:53.939Z,2.25
2023-05-06T06:25:21.595Z,2.47
2023-05-06T06:27:50.578Z,2.22
2023-05-06T06:30:17.213Z,1.97
2023-05-06T06:32:52.545Z,1.98
2023-05-06T06:35:23.666Z,1.90
2023-05-06T06:37:50.567Z,1.65
2023-05-06T06:40:17.222Z,1.98
2023-05-06T06:42:43.856Z,2.20
2023-05-06T06:45:11.237Z,2.10
2023-05-06T06:47:38.039Z,1.95
2023-05-06T06:50:05.082Z,2.03
2023-05-06T06:52:31.740Z,1.92
2023-05-06T06:54:58.344Z,1.90
2023-05-06T06:57:25.048Z,1.90
2023-05-06T06:59:53.688Z,1.73
2023-05-06T07:02:25.952Z,2.22
2023-05-06T07:04:53.991Z,2.40
2023-05-06T07:07:20.640Z,1.80
2023-05-06T07:09:47.265Z,2.03
2023-05-06T07:12:14.015Z,1.88
2023-05-06T07:14:43.133Z,2.35
2023-05-06T07:17:09.710Z,1.63
2023-05-06T07:19:36.476Z,2.07
2023-05-06T07:22:03.222Z,1.92
2023-05-06T07:24:29.832Z,1.80
2023-05-06T07:26:56.704Z,1.80
2023-05-06T07:29:26.134Z,2.00
2023-05-06T07:31:52.735Z,2.03
2023-05-06T07:34:22.501Z,1.70
2023-05-06T07:36:49.193Z,1.80
2023-05-06T07:39:18.085Z,2.30
2023-05-06T07:41:46.916Z,1.67
2023-05-06T07:44:13.496Z,1.50
2023-05-06T07:46:40.344Z,2.05
2023-05-06T07:49:07.140Z,2.10
2023-05-06T07:51:33.712Z,2.42
2023-05-06T07:54:02.378Z,2.13
2023-05-06T07:56:31.241Z,1.40
2023-05-06T07:58:59.387Z,1.80
2023-05-06T08:01:26.229Z,2.38
2023-05-06T08:03:52.864Z,2.00
2023-05-06T08:06:21.766Z,2.05
2023-05-06T08:08:48.444Z,1.70
2023-05-06T08:11:15.588Z,1.95
2023-05-06T08:13:42.996Z,1.83
2023-05-06T08:16:09.809Z,1.65
2023-05-06T08:18:36.393Z,2.10
2023-05-06T08:21:05.790Z,1.53
2023-05-06T08:23:32.598Z,1.42
2023-05-06T08:26:02.051Z,1.33
2023-05-06T08:28:29.391Z,1.63
2023-05-06T08:30:58.469Z,1.42
2023-05-06T08:33:27.698Z,1.37
2023-05-06T08:35:57.711Z,1.50
2023-05-06T08:38:25.862Z,1.85
2023-05-06T08:40:54.426Z,1.35
2023-05-06T08:43:22.754Z,1.55
2023-05-06T08:45:49.699Z,1.47
2023-05-06T08:48:17.074Z,1.80
2023-05-06T08:50:44.180Z,1.40
2023-05-06T08:53:14.285Z,1.55
2023-05-06T08:55:42.709Z,1.50
2023-05-06T08:58:13.437Z,1.57
2023-05-06T09:00:40.377Z,1.40
2023-05-06T09:03:09.525Z,1.13
2023-05-06T09:05:36.182Z,1.30
2023-05-06T09:08:05.494Z,1.55
2023-05-06T09:10:40.087Z,1.47
2023-05-06T09:13:09.015Z,1.00
2023-05-06T09:15:47.306Z,1.30
2023-05-06T09:18:16.904Z,1.45
2023-05-06T09:20:48.196Z,1.40
2023-05-06T09:23:16.564Z,1.10
2023-05-06T09:25:47.356Z,1.63
2023-05-06T09:28:14.590Z,1.38
2023-05-06T09:30:42.609Z,1.33
2023-05-06T09:33:09.586Z,2.00
2023-05-06T09:35:42.761Z,11.03
2023-05-06T09:38:09.822Z,8.27
2023-05-06T09:40:40.052Z,4.95
2023-05-06T09:43:06.804Z,3.83
2023-05-06T09:45:33.762Z,3.33
2023-05-06T09:48:01.143Z,2.87
2023-05-06T09:50:28.267Z,2.13
2023-05-06T09:52:55.717Z,2.10
2023-05-06T09:55:26.900Z,2.40
2023-05-06T09:57:54.764Z,2.47
2023-05-06T10:00:28.056Z,2.37
2023-05-06T10:02:55.316Z,2.10
2023-05-06T10:05:25.092Z,2.00
2023-05-06T10:07:53.558Z,3.42
2023-05-06T10:10:20.740Z,5.13
2023-05-06T10:12:49.766Z,4.20
2023-05-06T10:15:16.881Z,3.03
2023-05-06T10:17:48.210Z,4.30
2023-05-06T10:20:16.488Z,7.35
2023-05-06T10:23:09.169Z,6.38
2023-05-06T10:25:38.794Z,5.47
2023-05-06T10:28:12.300Z,6.70
2023-05-06T10:30:55.021Z,9.77
2023-05-06T10:33:24.783Z,9.73
2023-05-06T10:36:11.640Z,7.88
2023-05-06T10:38:43.491Z,8.23
2023-05-06T10:41:10.964Z,9.20
2023-05-06T10:43:42.890Z,16.30
2023-05-06T10:46:14.292Z,25.55
2023-05-06T10:49:08.465Z,22.70
2023-05-06T10:51:38.721Z,15.10
2023-05-06T10:54:09.923Z,14.75
2023-05-06T10:56:36.541Z,12.43
2023-05-06T10:59:11.259Z,11.77
2023-05-06T11:01:47.509Z,11.85
2023-05-06T11:04:15.995Z,11.53
2023-05-06T11:06:48.186Z,9.32
2023-05-06T11:09:20.383Z,8.70
2023-05-06T11:11:56.083Z,6.43
2023-05-06T11:14:30.842Z,6.22
2023-05-06T11:16:59.521Z,6.30
2023-05-06T11:19:31.151Z,6.05
2023-05-06T11:21:59.730Z,5.53
2023-05-06T11:24:28.657Z,5.55
2023-05-06T11:26:59.858Z,4.82
2023-05-06T11:29:27.063Z,4.93
2023-05-06T11:31:56.330Z,4.70
2023-05-06T11:34:28.867Z,4.43
2023-05-06T11:37:00.772Z,5.75
2023-05-06T11:39:33.271Z,6.13
2023-05-06T11:42:07.159Z,6.07
2023-05-06T11:44:37.553Z,6.70
2023-05-06T11:47:06.235Z,7.75
2023-05-06T11:49:43.273Z,8.68
2023-05-06T11:52:13.091Z,8.25
2023-05-06T11:54:41.973Z,8.40
2023-05-06T11:57:09.301Z,7.32
2023-05-06T11:59:37.974Z,7.03
2023-05-06T12:02:06.439Z,6.65
2023-05-06T12:04:46.532Z,7.00
2023-05-06T12:07:15.566Z,5.87
2023-05-06T12:09:44.515Z,5.80
2023-05-06T12:12:12.415Z,5.65
2023-05-06T12:14:40.233Z,5.43
2023-05-06T12:17:07.356Z,5.10
2023-05-06T12:19:35.953Z,4.97
2023-05-06T12:22:21.337Z,5.20
2023-05-06T12:24:48.886Z,5.25
2023-05-06T12:27:34.659Z,5.68
2023-05-06T12:30:02.699Z,5.30
2023-05-06T12:32:29.418Z,5.57
2023-05-06T12:34:56.694Z,4.38
2023-05-06T12:37:30.084Z,3.65
2023-05-06T12:39:59.556Z,3.65
2023-05-06T12:42:26.612Z,3.55
2023-05-06T12:44:53.363Z,3.23
2023-05-06T12:47:25.206Z,4.15
2023-05-06T12:49:58.429Z,3.38
2023-05-06T12:52:28.622Z,3.42
2023-05-06T12:54:56.026Z,3.10
2023-05-06T12:57:23.023Z,3.53
2023-05-06T12:59:49.881Z,3.90
2023-05-06T13:02:18.726Z,2.88
2023-05-06T13:04:46.885Z,3.30
2023-05-06T13:07:13.728Z,3.22
2023-05-06T13:09:40.571Z,3.93
2023-05-06T13:12:07.354Z,2.70
2023-05-06T13:14:34.096Z,3.45
2023-05-06T13:17:04.910Z,2.72
2023-05-06T13:19:33.287Z,3.53
2023-05-06T13:22:01.055Z,3.23
2023-05-06T13:24:28.100Z,3.10
2023-05-06T13:26:57.605Z,2.90
2023-05-06T13:29:31.985Z,2.58
2023-05-06T13:31:58.684Z,3.30
2023-05-06T13:34:26.080Z,2.40
2023-05-06T13:36:54.572Z,3.15
2023-05-06T13:39:21.769Z,2.97
2023-05-06T13:41:50.210Z,3.00
2023-05-06T13:44:17.760Z,2.97
2023-05-06T13:46:46.406Z,2.93
2023-05-06T13:49:19.228Z,2.45
2023-05-06T13:51:45.777Z,2.60
2023-05-06T13:54:12.476Z,3.30
2023-05-06T13:56:41.408Z,2.63
2023-05-06T13:59:09.991Z,2.50
2023-05-06T14:01:37.048Z,2.60
2023-05-06T14:04:03.879Z,2.92
2023-05-06T14:06:31.147Z,3.05
2023-05-06T14:08:57.731Z,2.70
2023-05-06T14:11:24.303Z,2.77
2023-05-06T14:13:55.704Z,2.88
2023-05-06T14:16:22.391Z,3.15
2023-05-06T14:18:48.978Z,5.65
2023-05-06T14:21:15.521Z,5.25
2023-05-06T14:23:42.098Z,21.90
2023-05-06T14:26:08.678Z,11.65
2023-05-06T14:28:37.762Z,10.77
2023-05-06T14:31:04.400Z,10.30
2023-05-06T14:33:33.750Z,10.68
2023-05-06T14:36:03.283Z,11.33
2023-05-06T14:38:32.224Z,12.38
2023-05-06T14:40:59.641Z,13.57
2023-05-06T14:43:26.253Z,15.23
2023-05-06T14:45:53.047Z,17.63
2023-05-06T14:48:19.709Z,17.13
2023-05-06T14:50:46.280Z,17.80
2023-05-06T14:53:12.857Z,15.73
2023-05-06T14:55:41.288Z,47.65
2023-05-06T14:58:10.605Z,21.92
2023-05-06T15:00:37.197Z,19.20
2023-05-06T15:03:04.582Z,14.65
2023-05-06T15:05:31.475Z,13.10
2023-05-06T15:07:58.079Z,10.85
2023-05-06T15:10:24.623Z,9.25
2023-05-06T15:12:51.233Z,8.63
2023-05-06T15:15:19.092Z,6.88
2023-05-06T15:17:45.798Z,7.30
2023-05-06T15:20:13.438Z,5.82
2023-05-06T15:22:40.388Z,5.22
2023-05-06T15:25:09.511Z,4.73
2023-05-06T15:27:41.843Z,4.03
2023-05-06T15:30:11.093Z,3.88
2023-05-06T15:32:37.740Z,4.78
2023-05-06T15:35:05.069Z,4.28
2023-05-06T15:37:35.173Z,4.13
2023-05-06T15:40:02.293Z,3.75
2023-05-06T15:42:29.668Z,3.80
2023-05-06T15:44:56.570Z,3.55
2023-05-06T15:47:25.460Z,3.85
2023-05-06T15:49:54.723Z,4.00
2023-05-06T15:52:22.762Z,3.67
2023-05-06T15:54:50.114Z,3.92
2023-05-06T15:57:18.551Z,3.90
2023-05-06T15:59:48.233Z,3.83
2023-05-06T16:02:26.994Z,4.40
2023-05-06T16:04:54.702Z,3.78
2023-05-06T16:07:21.512Z,4.00
2023-05-06T16:09:48.260Z,3.88
2023-05-06T16:12:17.349Z,4.32
2023-05-06T16:14:44.296Z,4.40
2023-05-06T16:17:13.134Z,3.65
2023-05-06T16:19:39.825Z,3.70
2023-05-06T16:22:06.456Z,3.78
2023-05-06T16:24:35.223Z,3.25
2023-05-06T16:27:01.811Z,3.47
2023-05-06T16:29:28.391Z,3.55
2023-05-06T16:31:55.140Z,3.25
2023-05-06T16:34:21.917Z,3.33
2023-05-06T16:36:48.626Z,3.53
2023-05-06T16:39:17.551Z,3.17
2023-05-06T16:41:46.564Z,3.13
2023-05-06T16:44:13.184Z,3.00
2023-05-06T16:46:39.787Z,3.10
2023-05-06T16:49:06.398Z,3.03
2023-05-06T16:51:35.509Z,2.73
2023-05-06T16:54:02.098Z,2.78
2023-05-06T16:56:40.480Z,2.80
2023-05-06T16:59:15.328Z,2.47
2023-05-06T17:01:41.923Z,2.30
2023-05-06T17:04:08.919Z,2.73
2023-05-06T17:06:37.703Z,2.20
2023-05-06T17:09:04.411Z,2.60
2023-05-06T17:11:31.073Z,2.28
2023-05-06T17:13:57.707Z,2.20
2023-05-06T17:16:26.712Z,2.07
2023-05-06T17:18:53.346Z,2.53
2023-05-06T17:21:21.366Z,2.00
2023-05-06T17:23:48.083Z,2.05
2023-05-06T17:26:17.793Z,2.38
2023-05-06T17:28:44.541Z,1.93
2023-05-06T17:31:11.185Z,2.10
2023-05-06T17:33:37.802Z,1.98
2023-05-06T17:36:07.185Z,1.98
2023-05-06T17:38:33.772Z,2.30
2023-05-06T17:41:00.378Z,1.60
2023-05-06T17:43:27.026Z,2.15
2023-05-06T17:45:56.219Z,2.10
2023-05-06T17:48:25.386Z,2.25
2023-05-06T17:50:56.731Z,2.00
2023-05-06T17:53:23.548Z,1.90
2023-05-06T17:55:50.086Z,1.75
2023-05-06T17:58:16.850Z,1.80
2023-05-06T18:00:43.430Z,1.85
2023-05-06T18:03:10.066Z,2.13
2023-05-06T18:05:36.764Z,2.70
2023-05-06T18:08:03.497Z,2.33
2023-05-06T18:10:30.176Z,2.70
2023-05-06T18:12:59.324Z,2.30
2023-05-06T18:15:25.948Z,2.42
2023-05-06T18:17:55.600Z,2.43
2023-05-06T18:20:24.394Z,2.08
2023-05-06T18:22:51.161Z,2.17
2023-05-06T18:25:17.791Z,2.03
2023-05-06T18:27:44.690Z,1.65
2023-05-06T18:30:11.834Z,2.13
2023-05-06T18:32:38.478Z,1.85
2023-05-06T18:35:05.520Z,1.80
2023-05-06T18:37:34.468Z,2.15
2023-05-06T18:40:01.065Z,1.75
2023-05-06T18:42:27.803Z,1.80
2023-05-06T18:44:54.500Z,1.63
2023-05-06T18:47:21.202Z,1.90
2023-05-06T18:49:48.669Z,1.85
2023-05-06T18:52:17.700Z,1.75
2023-05-06T18:54:46.698Z,2.03
2023-05-06T18:57:15.381Z,1.77
2023-05-06T18:59:44.459Z,1.58
2023-05-06T19:02:13.365Z,1.90
2023-05-06T19:04:39.960Z,2.40
2023-05-06T19:07:06.633Z,1.73
2023-05-06T19:09:36.921Z,2.25
2023-05-06T19:12:04.393Z,2.08
2023-05-06T19:14:32.418Z,1.85
2023-05-06T19:16:59.197Z,2.00
2023-05-06T19:19:26.027Z,2.03
2023-05-06T19:21:52.678Z,1.85
2023-05-06T19:24:21.741Z,2.28
2023-05-06T19:26:48.327Z,1.92
2023-05-06T19:29:14.933Z,2.22
2023-05-06T19:31:43.787Z,1.83
2023-05-06T19:34:10.364Z,2.67
2023-05-06T19:36:36.952Z,2.00
2023-05-06T19:39:03.747Z,1.58
2023-05-06T19:41:31.047Z,1.70
2023-05-06T19:43:57.651Z,2.00
2023-05-06T19:46:26.635Z,1.85
2023-05-06T19:48:53.289Z,1.83
2023-05-06T19:51:19.865Z,1.80
2023-05-06T19:53:46.860Z,1.77
2023-05-06T19:56:14.345Z,1.43
2023-05-06T19:58:41.078Z,1.85
2023-05-06T20:01:07.813Z,1.50
2023-05-06T20:03:35.627Z,1.77
2023-05-06T20:06:03.447Z,1.60
2023-05-06T20:08:31.059Z,1.73
2023-05-06T20:10:57.668Z,2.10
2023-05-06T20:13:24.487Z,1.70
2023-05-06T20:15:51.207Z,1.33
2023-05-06T20:18:17.870Z,1.42
2023-05-06T20:20:44.522Z,1.60
2023-05-06T20:23:13.608Z,1.80
2023-05-06T20:25:40.238Z,1.95
2023-05-06T20:28:07.112Z,2.33
2023-05-06T20:30:34.192Z,1.90
2023-05-06T20:33:01.149Z,1.70
2023-05-06T20:35:27.868Z,1.65
2023-05-06T20:37:56.856Z,2.10
2023-05-06T20:40:23.485Z,2.00
2023-05-06T20:42:50.126Z,2.05
2023-05-06T20:45:16.977Z,2.10
2023-05-06T20:47:46.009Z,1.70
2023-05-06T20:50:17.417Z,2.10
2023-05-06T20:52:47.568Z,1.85
2023-05-06T20:55:15.216Z,2.17
2023-05-06T20:57:43.478Z,2.17
2023-05-06T21:00:11.455Z,2.17
2023-05-06T21:02:41.322Z,2.50
2023-05-06T21:05:08.919Z,1.85
2023-05-06T21:07:36.021Z,1.92
2023-05-06T21:10:05.640Z,2.10
2023-05-06T21:12:33.288Z,1.90
2023-05-06T21:15:00.639Z,1.95
2023-05-06T21:17:27.575Z,2.10
2023-05-06T21:19:54.294Z,2.30
2023-05-06T21:22:23.189Z,1.60
2023-05-06T21:24:50.688Z,1.90
2023-05-06T21:27:17.324Z,1.55
2023-05-06T21:29:43.871Z,1.67
2023-05-06T21:32:10.487Z,1.40
2023-05-06T21:34:37.110Z,1.60
2023-05-06T21:37:03.681Z,1.40
2023-05-06T21:39:30.346Z,1.50
2023-05-06T21:41:56.940Z,1.58
2023-05-06T21:44:23.497Z,1.70
2023-05-06T21:46:50.141Z,1.60
2023-05-06T21:49:16.852Z,1.90
2023-05-06T21:51:43.511Z,37.20
2023-05-06T21:54:10.180Z,43.90
2023-05-06T21:56:36.775Z,13.68
2023-05-06T21:59:06.442Z,4.43
2023-05-06T22:01:36.347Z,4.07
2023-05-06T22:04:11.282Z,8.65
2023-05-06T22:06:38.709Z,12.45
2023-05-06T22:09:09.428Z,11.63
2023-05-06T22:11:38.767Z,11.83
2023-05-06T22:14:06.588Z,16.70
2023-05-06T22:16:37.950Z,15.85
2023-05-06T22:19:07.736Z,17.60
2023-05-06T22:21:35.123Z,15.82
2023-05-06T22:24:04.384Z,14.50
2023-05-06T22:26:32.988Z,16.65
2023-05-06T22:28:59.641Z,16.52
2023-05-06T22:31:26.534Z,12.77
2023-05-06T22:33:57.705Z,11.23
2023-05-06T22:36:29.168Z,9.53
2023-05-06T22:38:56.044Z,6.88
2023-05-06T22:41:22.764Z,5.30
2023-05-06T22:43:49.456Z,5.03
2023-05-06T22:46:16.234Z,4.10
2023-05-06T22:48:44.746Z,3.23
2023-05-06T22:51:11.634Z,3.20
2023-05-06T22:53:38.282Z,3.25
2023-05-06T22:56:05.119Z,3.00
2023-05-06T22:58:31.681Z,2.70
2023-05-06T23:00:58.426Z,2.67
2023-05-06T23:03:25.175Z,2.70
2023-05-06T23:05:52.262Z,2.45
2023-05-06T23:08:18.853Z,2.70
2023-05-06T23:10:45.608Z,2.17
2023-05-06T23:13:12.342Z,2.50
2023-05-06T23:15:41.668Z,2.20
2023-05-06T23:18:08.376Z,2.45
2023-05-06T23:20:35.033Z,2.17
2023-05-06T23:23:01.666Z,2.38
2023-05-06T23:25:28.263Z,2.47
2023-05-06T23:27:55.312Z,3.47
2023-05-06T23:30:22.008Z,3.00
2023-05-06T23:32:48.646Z,3.00
2023-05-06T23:35:15.346Z,2.60
2023-05-06T23:37:41.931Z,3.10
2023-05-06T23:40:12.671Z,2.85
2023-05-06T23:42:40.580Z,2.42
2023-05-06T23:45:07.830Z,3.17
2023-05-06T23:47:34.543Z,3.40
2023-05-06T23:50:01.501Z,3.23
2023-05-06T23:52:28.095Z,3.38
2023-05-06T23:54:54.702Z,3.42
2023-05-06T23:57:23.582Z,3.28
2023-05-06T23:59:50.155Z,3.25
